createdAt,value
2022-12-05T00:00:28.057Z,53.80
2022-12-05T00:02:54.728Z,53.80
2022-12-05T00:05:21.505Z,53.80
2022-12-05T00:07:48.298Z,53.80
2022-12-05T00:10:15.074Z,53.70
2022-12-05T00:12:41.749Z,53.80
2022-12-05T00:15:12.459Z,53.70
2022-12-05T00:17:40.774Z,53.70
2022-12-05T00:20:07.900Z,53.80
2022-12-05T00:22:38.308Z,53.80
2022-12-05T00:25:06.121Z,53.80
2022-12-05T00:27:32.881Z,53.70
2022-12-05T00:29:59.704Z,53.70
2022-12-05T00:32:28.090Z,53.70
2022-12-05T00:34:54.759Z,53.80
2022-12-05T00:37:21.598Z,53.70
2022-12-05T00:39:48.232Z,53.70
2022-12-05T00:42:15.017Z,53.70
2022-12-05T00:44:41.664Z,53.60
2022-12-05T00:47:08.382Z,53.60
2022-12-05T00:49:35.066Z,53.60
2022-12-05T00:52:01.738Z,53.50
2022-12-05T00:54:28.429Z,53.60
2022-12-05T00:56:58.145Z,53.50
2022-12-05T00:59:24.843Z,53.60
2022-12-05T01:01:51.785Z,53.60
2022-12-05T01:04:22.413Z,53.60
2022-12-05T01:06:49.233Z,53.70
2022-12-05T01:09:18.503Z,53.50
2022-12-05T01:11:45.157Z,53.60
2022-12-05T01:14:12.215Z,53.50
2022-12-05T01:16:39.296Z,53.60
2022-12-05T01:19:07.834Z,53.50
2022-12-05T01:21:34.467Z,53.60
2022-12-05T01:24:01.112Z,53.60
2022-12-05T01:26:27.728Z,53.60
2022-12-05T01:28:54.464Z,53.50
2022-12-05T01:31:28.249Z,53.60
2022-12-05T01:33:55.472Z,53.60
2022-12-05T01:36:22.351Z,53.50
2022-12-05T01:38:49.091Z,54.10
2022-12-05T01:41:17.003Z,53.60
2022-12-05T01:43:53.118Z,53.50
2022-12-05T01:46:19.874Z,53.50
2022-12-05T01:48:46.564Z,53.50
2022-12-05T01:51:13.165Z,53.50
2022-12-05T01:53:39.884Z,53.50
2022-12-05T01:56:06.834Z,53.50
2022-12-05T01:58:37.034Z,53.50
2022-12-05T02:01:03.691Z,53.50
2022-12-05T02:03:30.408Z,53.50
2022-12-05T02:05:57.163Z,53.40
2022-12-05T02:08:23.895Z,53.50
2022-12-05T02:10:52.148Z,53.40
2022-12-05T02:13:34.659Z,53.40
2022-12-05T02:16:03.247Z,53.30
2022-12-05T02:18:29.984Z,53.40
2022-12-05T02:20:59.656Z,53.40
2022-12-05T02:23:45.103Z,53.40
2022-12-05T02:26:18.095Z,53.30
2022-12-05T02:28:44.776Z,53.40
2022-12-05T02:31:11.660Z,53.20
2022-12-05T02:33:58.711Z,53.30
2022-12-05T02:36:29.166Z,53.40
2022-12-05T02:38:55.845Z,53.40
2022-12-05T02:41:24.816Z,53.40
2022-12-05T02:43:51.616Z,53.40
2022-12-05T02:46:19.594Z,53.50
2022-12-05T02:48:46.698Z,53.40
2022-12-05T02:51:14.158Z,53.40
2022-12-05T02:53:40.843Z,53.40
2022-12-05T02:56:07.752Z,53.40
2022-12-05T02:58:36.437Z,53.20
2022-12-05T03:01:03.195Z,53.20
2022-12-05T03:03:29.886Z,53.20
2022-12-05T03:06:03.854Z,53.20
2022-12-05T03:08:32.896Z,53.20
2022-12-05T03:10:59.511Z,53.20
2022-12-05T03:13:34.256Z,53.20
2022-12-05T03:16:01.928Z,53.20
2022-12-05T03:18:33.288Z,53.20
2022-12-05T03:20:59.950Z,53.20
2022-12-05T03:23:29.065Z,53.20
2022-12-05T03:26:12.140Z,53.20
2022-12-05T03:28:41.882Z,53.20
2022-12-05T03:31:09.371Z,53.20
2022-12-05T03:33:37.103Z,53.20
2022-12-05T03:36:12.215Z,53.20
2022-12-05T03:38:45.378Z,53.20
2022-12-05T03:41:18.353Z,53.20
2022-12-05T03:43:57.380Z,53.20
2022-12-05T03:46:24.175Z,53.20
2022-12-05T03:48:57.016Z,53.20
2022-12-05T03:51:25.766Z,53.20
2022-12-05T03:54:06.288Z,53.20
2022-12-05T03:56:38.067Z,53.20
2022-12-05T03:59:11.861Z,53.20
2022-12-05T04:01:38.528Z,53.20
2022-12-05T04:04:08.495Z,53.20
2022-12-05T04:06:37.114Z,53.20
2022-12-05T04:09:05.031Z,53.20
2022-12-05T04:11:33.251Z,53.20
2022-12-05T04:14:01.261Z,53.20
2022-12-05T04:16:48.669Z,53.20
2022-12-05T04:19:17.476Z,53.20
2022-12-05T04:21:45.949Z,53.20
2022-12-05T04:24:50.015Z,53.20
2022-12-05T04:27:21.391Z,53.10
2022-12-05T04:30:23.785Z,53.10
2022-12-05T04:32:53.500Z,53.20
2022-12-05T04:35:28.693Z,53.20
2022-12-05T04:37:57.015Z,53.10
2022-12-05T04:40:26.351Z,53.20
2022-12-05T04:42:53.008Z,53.20
2022-12-05T04:45:19.666Z,53.10
2022-12-05T04:47:47.546Z,53.10
2022-12-05T04:50:14.246Z,53.80
2022-12-05T04:52:40.906Z,53.20
2022-12-05T04:55:09.054Z,53.20
2022-12-05T04:57:37.191Z,53.20
2022-12-05T05:00:04.555Z,53.10
2022-12-05T05:02:32.799Z,53.20
2022-12-05T05:04:59.857Z,53.10
2022-12-05T05:07:26.756Z,53.20
2022-12-05T05:09:53.467Z,53.10
2022-12-05T05:12:20.146Z,53.10
2022-12-05T05:14:46.762Z,53.10
2022-12-05T05:17:13.526Z,53.00
2022-12-05T05:19:40.191Z,53.00
2022-12-05T05:22:06.873Z,53.00
2022-12-05T05:24:33.529Z,53.00
2022-12-05T05:27:00.176Z,52.90
2022-12-05T05:29:26.806Z,52.90
2022-12-05T05:31:53.473Z,52.90
2022-12-05T05:34:20.122Z,52.90
2022-12-05T05:36:50.899Z,52.90
2022-12-05T05:39:17.533Z,52.90
2022-12-05T05:41:44.630Z,52.90
2022-12-05T05:44:12.392Z,52.90
2022-12-05T05:46:39.435Z,52.90
2022-12-05T05:49:06.216Z,53.00
2022-12-05T05:51:32.939Z,52.90
2022-12-05T05:53:59.865Z,52.90
2022-12-05T05:56:26.571Z,53.00
2022-12-05T05:59:00.110Z,52.90
2022-12-05T06:01:26.958Z,52.90
2022-12-05T06:03:53.803Z,53.00
2022-12-05T06:06:20.669Z,53.10
2022-12-05T06:08:47.444Z,53.00
2022-12-05T06:11:25.881Z,52.80
2022-12-05T06:13:56.624Z,52.80
2022-12-05T06:16:23.435Z,53.20
2022-12-05T06:18:50.330Z,53.40
2022-12-05T06:21:17.049Z,53.40
2022-12-05T06:23:43.727Z,53.40
2022-12-05T06:26:11.463Z,53.40
2022-12-05T06:28:39.496Z,53.40
2022-12-05T06:31:10.348Z,53.30
2022-12-05T06:33:37.113Z,53.20
2022-12-05T06:36:04.656Z,53.20
2022-12-05T06:38:31.324Z,53.20
2022-12-05T06:40:58.026Z,53.20
2022-12-05T06:43:24.660Z,53.20
2022-12-05T06:45:51.404Z,53.20
2022-12-05T06:48:18.155Z,53.20
2022-12-05T06:50:49.059Z,53.20
2022-12-05T06:53:15.695Z,53.20
2022-12-05T06:55:42.339Z,53.20
2022-12-05T06:58:08.957Z,53.20
2022-12-05T07:00:54.207Z,53.20
2022-12-05T07:03:20.850Z,53.20
2022-12-05T07:05:47.497Z,53.20
2022-12-05T07:08:14.217Z,53.20
2022-12-05T07:10:50.146Z,53.20
2022-12-05T07:13:16.808Z,53.20
2022-12-05T07:15:43.514Z,53.20
2022-12-05T07:18:10.212Z,53.10
2022-12-05T07:21:03.848Z,53.10
2022-12-05T07:23:23.601Z,53.10
2022-12-05T07:25:50.283Z,53.20
2022-12-05T07:28:16.998Z,53.20
2022-12-05T07:30:43.715Z,53.10
2022-12-05T07:33:10.382Z,53.20
2022-12-05T07:35:37.088Z,53.20
2022-12-05T07:38:03.778Z,53.20
2022-12-05T07:40:30.581Z,53.80
2022-12-05T07:42:57.254Z,53.20
2022-12-05T07:45:25.743Z,53.10
2022-12-05T07:47:52.466Z,53.20
2022-12-05T07:50:19.238Z,53.10
2022-12-05T07:52:45.905Z,53.10
2022-12-05T07:55:12.606Z,53.10
2022-12-05T07:57:39.264Z,53.10
2022-12-05T08:00:11.304Z,53.10
2022-12-05T08:02:40.754Z,53.10
2022-12-05T08:05:08.258Z,53.10
2022-12-05T08:07:34.931Z,53.10
2022-12-05T08:10:01.599Z,53.10
2022-12-05T08:12:28.314Z,53.10
2022-12-05T08:14:54.962Z,53.10
2022-12-05T08:17:21.619Z,53.10
2022-12-05T08:19:48.370Z,53.10
2022-12-05T08:22:15.074Z,53.10
2022-12-05T08:24:41.817Z,53.10
2022-12-05T08:27:08.509Z,53.00
2022-12-05T08:29:35.222Z,53.00
2022-12-05T08:32:01.941Z,53.10
2022-12-05T08:34:28.619Z,53.10
2022-12-05T08:36:55.366Z,52.90
2022-12-05T08:39:22.065Z,52.90
2022-12-05T08:41:48.874Z,52.90
2022-12-05T08:44:18.755Z,52.90
2022-12-05T08:46:46.779Z,52.90
2022-12-05T08:49:13.558Z,52.90
2022-12-05T08:51:40.565Z,52.80
2022-12-05T08:54:07.243Z,52.90
2022-12-05T08:56:34.067Z,52.80
2022-12-05T08:59:05.824Z,52.80
2022-12-05T09:01:33.532Z,52.90
2022-12-05T09:04:05.250Z,52.80
2022-12-05T09:06:32.540Z,52.70
2022-12-05T09:08:59.903Z,52.80
2022-12-05T09:11:27.665Z,52.80
2022-12-05T09:13:55.026Z,52.70
2022-12-05T09:16:22.686Z,52.80
2022-12-05T09:18:49.793Z,52.80
2022-12-05T09:21:17.446Z,52.70
2022-12-05T09:23:44.103Z,52.80
2022-12-05T09:26:12.020Z,52.70
2022-12-05T09:28:38.820Z,52.70
2022-12-05T09:31:06.229Z,52.70
2022-12-05T09:33:34.085Z,52.80
2022-12-05T09:36:07.625Z,52.80
2022-12-05T09:38:34.313Z,52.70
2022-12-05T09:41:04.197Z,52.70
2022-12-05T09:43:33.175Z,52.80
2022-12-05T09:46:02.657Z,52.80
2022-12-05T09:48:29.389Z,52.80
2022-12-05T09:51:00.150Z,52.70
2022-12-05T09:53:36.461Z,52.80
2022-12-05T09:56:07.009Z,52.70
2022-12-05T09:58:33.727Z,52.70
2022-12-05T10:01:08.790Z,52.70
2022-12-05T10:03:37.888Z,52.70
2022-12-05T10:06:26.292Z,52.60
2022-12-05T10:08:53.456Z,52.70
2022-12-05T10:11:23.847Z,52.60
2022-12-05T10:14:00.213Z,52.60
2022-12-05T10:16:35.237Z,52.60
2022-12-05T10:19:06.934Z,52.60
2022-12-05T10:21:34.448Z,52.60
2022-12-05T10:24:04.595Z,52.60
2022-12-05T10:26:33.151Z,52.60
2022-12-05T10:29:21.986Z,52.60
2022-12-05T10:31:48.669Z,52.60
2022-12-05T10:34:17.537Z,52.60
2022-12-05T10:36:55.136Z,52.60
2022-12-05T10:39:21.857Z,52.60
2022-12-05T10:41:48.501Z,52.60
2022-12-05T10:44:15.234Z,52.60
2022-12-05T10:46:41.951Z,52.50
2022-12-05T10:49:12.131Z,52.50
2022-12-05T10:51:38.890Z,52.50
2022-12-05T10:54:13.056Z,52.50
2022-12-05T10:56:41.072Z,52.50
2022-12-05T10:59:08.791Z,52.50
2022-12-05T11:01:37.333Z,52.50
2022-12-05T11:04:18.003Z,52.50
2022-12-05T11:07:03.831Z,52.50
2022-12-05T11:09:31.367Z,52.50
2022-12-05T11:12:07.400Z,52.50
2022-12-05T11:14:36.202Z,52.50
2022-12-05T11:17:03.433Z,52.50
2022-12-05T11:19:39.478Z,52.50
2022-12-05T11:22:08.396Z,52.50
2022-12-05T11:24:36.176Z,52.40
2022-12-05T11:27:18.276Z,52.40
2022-12-05T11:29:46.382Z,52.50
2022-12-05T11:32:20.243Z,52.40
2022-12-05T11:35:05.882Z,52.40
2022-12-05T11:37:36.001Z,52.50
2022-12-05T11:40:03.081Z,52.40
2022-12-05T11:42:50.061Z,52.40
2022-12-05T11:45:32.700Z,52.50
2022-12-05T11:48:05.442Z,52.40
2022-12-05T11:51:01.638Z,52.30
2022-12-05T11:53:28.319Z,52.40
2022-12-05T11:55:57.826Z,52.40
2022-12-05T11:58:33.652Z,52.30
2022-12-05T12:01:21.350Z,52.30
2022-12-05T12:03:48.105Z,52.40
2022-12-05T12:06:33.533Z,52.40
2022-12-05T12:09:12.273Z,52.30
2022-12-05T12:11:50.894Z,52.30
2022-12-05T12:14:17.960Z,52.30
2022-12-05T12:16:57.041Z,52.30
2022-12-05T12:19:23.769Z,52.90
2022-12-05T12:21:50.448Z,52.20
2022-12-05T12:24:29.515Z,52.30
2022-12-05T12:27:09.351Z,52.30
2022-12-05T12:29:55.509Z,52.30
2022-12-05T12:32:22.211Z,52.30
2022-12-05T12:34:56.626Z,52.30
2022-12-05T12:37:32.952Z,52.30
2022-12-05T12:40:18.620Z,52.30
2022-12-05T12:42:48.265Z,52.30
2022-12-05T12:45:27.319Z,52.30
2022-12-05T12:47:54.152Z,52.30
2022-12-05T12:50:22.231Z,52.30
2022-12-05T12:53:07.818Z,52.30
2022-12-05T12:55:49.863Z,52.20
2022-12-05T12:58:20.071Z,52.30
2022-12-05T13:00:49.941Z,52.30
2022-12-05T13:03:17.863Z,52.40
2022-12-05T13:05:47.004Z,52.20
2022-12-05T13:08:13.759Z,52.20
2022-12-05T13:10:44.224Z,52.30
2022-12-05T13:13:33.974Z,52.30
2022-12-05T13:16:01.103Z,52.20
2022-12-05T13:18:27.983Z,52.20
2022-12-05T13:20:55.467Z,52.20
2022-12-05T13:23:31.831Z,52.20
2022-12-05T13:25:58.944Z,52.20
2022-12-05T13:28:27.781Z,52.20
2022-12-05T13:31:07.625Z,52.30
2022-12-05T13:33:35.481Z,52.90
2022-12-05T13:36:50.251Z,52.30
2022-12-05T13:39:37.411Z,52.20
2022-12-05T13:42:16.259Z,52.20
2022-12-05T13:44:43.002Z,52.20
2022-12-05T13:47:26.416Z,52.40
2022-12-05T13:49:54.505Z,52.30
2022-12-05T13:52:25.690Z,52.30
2022-12-05T13:55:00.915Z,52.30
2022-12-05T13:57:48.579Z,52.30
2022-12-05T14:00:15.246Z,52.30
2022-12-05T14:02:42.171Z,52.30
2022-12-05T14:05:15.183Z,52.30
2022-12-05T14:07:48.487Z,52.20
2022-12-05T14:10:18.656Z,52.10
2022-12-05T14:12:54.445Z,52.00
2022-12-05T14:15:27.365Z,51.80
2022-12-05T14:17:57.751Z,51.70
2022-12-05T14:20:24.483Z,51.40
2022-12-05T14:23:01.497Z,51.20
2022-12-05T14:25:30.478Z,50.90
2022-12-05T14:28:18.473Z,50.50
2022-12-05T14:31:03.902Z,50.50
2022-12-05T14:33:30.581Z,50.60
2022-12-05T14:35:57.370Z,50.60
2022-12-05T14:38:30.823Z,50.80
2022-12-05T14:41:06.175Z,51.00
2022-12-05T14:43:33.379Z,51.90
2022-12-05T14:46:01.169Z,51.30
2022-12-05T14:48:34.000Z,51.30
2022-12-05T14:51:00.803Z,51.10
2022-12-05T14:53:27.860Z,51.40
2022-12-05T14:55:54.547Z,51.40
2022-12-05T14:58:22.362Z,51.60
2022-12-05T15:00:59.390Z,51.50
2022-12-05T15:03:41.248Z,51.70
2022-12-05T15:06:11.213Z,51.80
2022-12-05T15:08:48.750Z,51.70
2022-12-05T15:11:28.503Z,51.40
2022-12-05T15:14:00.688Z,51.70
2022-12-05T15:16:29.916Z,51.80
2022-12-05T15:18:57.963Z,51.80
2022-12-05T15:21:33.943Z,51.90
2022-12-05T15:24:01.564Z,52.00
2022-12-05T15:26:50.381Z,52.10
2022-12-05T15:29:26.661Z,52.20
2022-12-05T15:31:54.176Z,52.20
2022-12-05T15:34:36.198Z,52.30
2022-12-05T15:37:04.734Z,52.40
2022-12-05T15:39:31.383Z,52.40
2022-12-05T15:41:58.167Z,52.40
2022-12-05T15:44:31.585Z,52.40
2022-12-05T15:47:01.143Z,52.50
2022-12-05T15:49:27.942Z,52.40
2022-12-05T15:52:13.528Z,52.60
2022-12-05T15:54:40.163Z,52.60
2022-12-05T15:57:09.925Z,52.70
2022-12-05T15:59:38.719Z,52.60
2022-12-05T16:02:20.193Z,52.70
2022-12-05T16:04:48.902Z,52.70
2022-12-05T16:07:15.851Z,52.60
2022-12-05T16:09:43.243Z,52.80
2022-12-05T16:12:21.188Z,52.80
2022-12-05T16:15:04.726Z,52.80
2022-12-05T16:17:38.113Z,52.70
2022-12-05T16:20:16.955Z,52.90
2022-12-05T16:22:50.383Z,52.90
2022-12-05T16:25:18.264Z,52.90
2022-12-05T16:27:55.591Z,53.00
2022-12-05T16:30:22.627Z,53.00
2022-12-05T16:32:50.122Z,53.00
2022-12-05T16:35:35.497Z,52.90
2022-12-05T16:38:14.675Z,53.00
2022-12-05T16:40:42.612Z,53.00
2022-12-05T16:43:35.858Z,53.00
2022-12-05T16:46:13.060Z,53.00
2022-12-05T16:48:40.345Z,53.00
2022-12-05T16:51:13.166Z,52.90
2022-12-05T16:53:52.742Z,53.30
2022-12-05T16:56:22.495Z,53.10
2022-12-05T16:58:49.317Z,53.10
2022-12-05T17:01:21.998Z,53.10
2022-12-05T17:03:48.890Z,53.10
2022-12-05T17:06:15.605Z,53.20
2022-12-05T17:08:42.427Z,53.40
2022-12-05T17:11:35.507Z,52.80
2022-12-05T17:14:03.226Z,52.40
2022-12-05T17:16:30.053Z,52.90
2022-12-05T17:18:56.903Z,53.00
2022-12-05T17:21:24.343Z,53.30
2022-12-05T17:23:54.270Z,53.50
2022-12-05T17:26:21.141Z,53.10
2022-12-05T17:28:47.871Z,53.20
2022-12-05T17:31:17.103Z,53.50
2022-12-05T17:33:44.334Z,53.50
2022-12-05T17:36:11.795Z,53.40
2022-12-05T17:38:38.880Z,53.50
2022-12-05T17:41:07.363Z,53.40
2022-12-05T17:43:34.357Z,53.60
2022-12-05T17:46:01.295Z,53.40
2022-12-05T17:48:29.004Z,53.40
2022-12-05T17:50:58.531Z,53.40
2022-12-05T17:53:25.211Z,53.40
2022-12-05T17:55:52.275Z,53.40
2022-12-05T17:58:19.070Z,53.40
2022-12-05T18:00:48.385Z,53.40
2022-12-05T18:03:16.274Z,53.30
2022-12-05T18:05:43.741Z,53.40
2022-12-05T18:08:10.754Z,53.40
2022-12-05T18:10:40.209Z,53.30
2022-12-05T18:13:07.008Z,53.30
2022-12-05T18:15:37.961Z,53.40
2022-12-05T18:18:08.299Z,53.40
2022-12-05T18:20:35.035Z,53.30
2022-12-05T18:23:02.873Z,53.20
2022-12-05T18:25:31.995Z,53.20
2022-12-05T18:27:59.110Z,53.10
2022-12-05T18:30:25.964Z,53.10
2022-12-05T18:32:52.866Z,53.00
2022-12-05T18:35:40.579Z,53.00
2022-12-05T18:38:08.039Z,53.10
2022-12-05T18:40:34.908Z,53.00
2022-12-05T18:43:01.748Z,52.90
2022-12-05T18:45:28.603Z,53.00
2022-12-05T18:48:09.554Z,52.90
2022-12-05T18:50:42.207Z,53.00
2022-12-05T18:53:08.895Z,52.90
2022-12-05T18:56:04.650Z,52.90
2022-12-05T18:58:25.519Z,52.80
2022-12-05T19:00:52.823Z,52.90
2022-12-05T19:03:19.571Z,52.80
2022-12-05T19:05:46.382Z,52.80
2022-12-05T19:08:13.242Z,52.80
2022-12-05T19:10:39.941Z,52.60
2022-12-05T19:13:06.790Z,52.40
2022-12-05T19:15:40.012Z,52.10
2022-12-05T19:18:06.825Z,52.00
2022-12-05T19:20:33.505Z,51.80
2022-12-05T19:23:01.159Z,51.60
2022-12-05T19:25:31.154Z,51.20
2022-12-05T19:27:57.879Z,51.20
2022-12-05T19:30:52.511Z,51.30
2022-12-05T19:33:19.214Z,51.40
2022-12-05T19:35:45.907Z,51.50
2022-12-05T19:38:12.580Z,51.70
2022-12-05T19:40:39.368Z,51.90
2022-12-05T19:43:06.022Z,51.90
2022-12-05T19:45:32.744Z,52.10
2022-12-05T19:47:59.406Z,52.20
2022-12-05T19:50:29.198Z,52.00
2022-12-05T19:52:55.854Z,52.20
2022-12-05T19:55:22.832Z,52.20
2022-12-05T19:57:49.467Z,52.20
2022-12-05T20:00:19.828Z,52.20
2022-12-05T20:02:50.137Z,52.20
2022-12-05T20:05:17.106Z,52.20
2022-12-05T20:07:43.874Z,52.30
2022-12-05T20:10:11.020Z,52.20
2022-12-05T20:12:37.706Z,52.30
2022-12-05T20:15:04.690Z,52.20
2022-12-05T20:17:31.484Z,52.20
2022-12-05T20:19:58.979Z,52.30
2022-12-05T20:22:27.134Z,52.20
2022-12-05T20:24:53.837Z,52.30
2022-12-05T20:27:20.505Z,51.80
2022-12-05T20:29:47.173Z,52.00
2022-12-05T20:32:13.953Z,52.00
2022-12-05T20:34:40.628Z,52.30
2022-12-05T20:37:07.269Z,52.30
2022-12-05T20:39:33.934Z,52.30
2022-12-05T20:42:00.699Z,52.30
2022-12-05T20:44:27.420Z,52.30
2022-12-05T20:46:54.158Z,52.30
2022-12-05T20:49:20.896Z,52.30
2022-12-05T20:51:47.755Z,52.40
2022-12-05T20:54:16.621Z,52.40
2022-12-05T20:56:43.410Z,52.40
2022-12-05T20:59:10.722Z,52.40
2022-12-05T21:01:37.636Z,52.40
2022-12-05T21:04:05.882Z,52.40
2022-12-05T21:06:35.399Z,52.30
2022-12-05T21:09:02.246Z,52.30
2022-12-05T21:11:29.195Z,52.30
2022-12-05T21:13:56.256Z,52.20
2022-12-05T21:16:25.943Z,52.20
2022-12-05T21:18:52.676Z,52.20
2022-12-05T21:21:20.087Z,52.30
2022-12-05T21:23:47.827Z,52.20
2022-12-05T21:26:15.377Z,52.20
2022-12-05T21:28:42.398Z,52.30
2022-12-05T21:31:11.292Z,52.20
2022-12-05T21:33:38.315Z,52.30
2022-12-05T21:36:05.371Z,52.30
2022-12-05T21:38:32.085Z,52.30
2022-12-05T21:40:58.746Z,52.30
2022-12-05T21:43:25.403Z,52.30
2022-12-05T21:45:53.255Z,52.30
2022-12-05T21:48:20.553Z,52.30
2022-12-05T21:50:47.423Z,52.40
2022-12-05T21:53:14.120Z,52.30
2022-12-05T21:55:41.815Z,52.30
2022-12-05T21:58:08.482Z,52.30
2022-12-05T22:00:35.189Z,52.50
2022-12-05T22:03:01.927Z,52.30
2022-12-05T22:05:28.692Z,52.20
2022-12-05T22:07:55.379Z,52.30
2022-12-05T22:10:22.027Z,52.30
2022-12-05T22:12:48.694Z,52.10
2022-12-05T22:15:15.374Z,52.30
2022-12-05T22:17:42.025Z,52.10
2022-12-05T22:20:08.762Z,52.20
2022-12-05T22:22:35.491Z,52.20
2022-12-05T22:25:04.240Z,52.10
2022-12-05T22:27:30.898Z,52.10
2022-12-05T22:29:57.827Z,52.10
2022-12-05T22:32:24.627Z,52.00
2022-12-05T22:34:51.271Z,52.10
2022-12-05T22:37:17.946Z,52.10
2022-12-05T22:39:44.603Z,52.00
2022-12-05T22:42:11.274Z,52.10
2022-12-05T22:44:37.939Z,52.10
2022-12-05T22:47:04.684Z,52.10
2022-12-05T22:49:31.355Z,52.10
2022-12-05T22:51:57.992Z,52.10
2022-12-05T22:54:28.728Z,52.10
2022-12-05T22:56:56.946Z,52.10
2022-12-05T22:59:23.689Z,52.00
2022-12-05T23:01:50.440Z,52.10
2022-12-05T23:04:17.548Z,52.10
2022-12-05T23:06:44.315Z,52.20
2022-12-05T23:09:11.060Z,52.00
2022-12-05T23:11:37.859Z,52.10
2022-12-05T23:14:06.565Z,52.10
2022-12-05T23:16:33.493Z,52.20
2022-12-05T23:19:01.285Z,52.10
2022-12-05T23:21:29.732Z,52.10
2022-12-05T23:23:57.093Z,52.00
2022-12-05T23:26:24.990Z,52.00
2022-12-05T23:28:51.780Z,52.00
2022-12-05T23:31:18.591Z,51.90
2022-12-05T23:33:46.818Z,52.00
2022-12-05T23:36:16.254Z,52.00
2022-12-05T23:38:43.070Z,52.00
2022-12-05T23:41:13.728Z,52.00
2022-12-05T23:43:40.600Z,52.00
2022-12-05T23:46:07.261Z,52.00
2022-12-05T23:48:34.026Z,52.10
2022-12-05T23:51:04.766Z,52.10
2022-12-05T23:53:32.090Z,51.90
2022-12-05T23:56:02.300Z,51.90
2022-12-05T23:58:29.719Z,52.00
